createdAt,value
2022-07-31T00:00:39.297Z,67.91
2022-07-31T00:01:40.153Z,68.01
2022-07-31T00:02:39.274Z,67.91
2022-07-31T00:03:39.310Z,68.01
2022-07-31T00:04:39.244Z,68.01
2022-07-31T00:05:41.952Z,68.11
2022-07-31T00:06:39.959Z,68.21
2022-07-31T00:07:39.216Z,68.21
2022-07-31T00:08:39.193Z,68.31
2022-07-31T00:09:52.375Z,68.41
2022-07-31T00:10:40.166Z,68.31
2022-07-31T00:11:39.172Z,68.51
2022-07-31T00:12:39.154Z,68.41
2022-07-31T00:13:57.252Z,68.21
2022-07-31T00:14:40.123Z,68.21
2022-07-31T00:15:39.106Z,68.11
2022-07-31T00:16:39.102Z,67.91
2022-07-31T00:17:39.902Z,67.74
2022-07-31T00:18:39.122Z,68.04
2022-07-31T00:19:39.074Z,68.34
2022-07-31T00:20:39.862Z,68.54
2022-07-31T00:21:39.243Z,68.44
2022-07-31T00:22:39.034Z,68.54
2022-07-31T00:23:39.153Z,68.65
2022-07-31T00:24:39.033Z,68.44
2022-07-31T00:25:38.992Z,68.34
2022-07-31T00:26:38.994Z,68.54
2022-07-31T00:27:38.970Z,69.05
2022-07-31T00:28:39.874Z,69.15
2022-07-31T00:29:38.994Z,69.15
2022-07-31T00:30:38.952Z,69.15
2022-07-31T00:31:39.053Z,69.15
2022-07-31T00:32:38.939Z,69.35
2022-07-31T00:33:38.915Z,69.59
2022-07-31T00:34:39.591Z,69.89
2022-07-31T00:35:38.895Z,69.48
2022-07-31T00:36:38.881Z,69.38
2022-07-31T00:37:38.854Z,68.77
2022-07-31T00:38:38.863Z,69.28
2022-07-31T00:39:39.614Z,69.48
2022-07-31T00:40:39.522Z,69.59
2022-07-31T00:41:38.835Z,69.59
2022-07-31T00:42:38.819Z,69.59
2022-07-31T00:43:38.884Z,69.48
2022-07-31T00:44:39.194Z,69.79
2022-07-31T00:45:38.794Z,70.09
2022-07-31T00:46:38.813Z,70.09
2022-07-31T00:47:39.310Z,69.38
2022-07-31T00:48:38.743Z,69.68
2022-07-31T00:49:38.724Z,69.89
2022-07-31T00:50:39.548Z,69.89
2022-07-31T00:51:38.715Z,70.19
2022-07-31T00:52:39.606Z,70.29
2022-07-31T00:53:38.691Z,70.29
2022-07-31T00:54:38.702Z,70.19
2022-07-31T00:55:41.815Z,70.49
2022-07-31T00:56:39.692Z,70.69
2022-07-31T00:57:38.634Z,70.79
2022-07-31T00:58:39.546Z,71.00
2022-07-31T00:59:38.624Z,71.13
2022-07-31T01:00:38.693Z,71.20
2022-07-31T01:01:39.366Z,70.93
2022-07-31T01:02:46.626Z,70.42
2022-07-31T01:03:39.573Z,70.62
2022-07-31T01:04:41.480Z,70.62
2022-07-31T01:05:39.404Z,70.73
2022-07-31T01:06:42.557Z,70.62
2022-07-31T01:07:39.236Z,70.83
2022-07-31T01:08:38.846Z,70.93
2022-07-31T01:09:38.496Z,70.83
2022-07-31T01:10:39.439Z,70.83
2022-07-31T01:11:38.510Z,70.83
2022-07-31T01:12:38.507Z,70.93
2022-07-31T01:13:38.460Z,70.83
2022-07-31T01:14:38.464Z,70.73
2022-07-31T01:15:38.437Z,70.42
2022-07-31T01:16:38.455Z,70.53
2022-07-31T01:17:39.268Z,70.73
2022-07-31T01:18:39.169Z,70.62
2022-07-31T01:19:43.121Z,70.83
2022-07-31T01:20:39.225Z,70.62
2022-07-31T01:21:39.129Z,70.62
2022-07-31T01:22:38.385Z,70.73
2022-07-31T01:23:39.215Z,70.73
2022-07-31T01:24:38.447Z,71.03
2022-07-31T01:25:38.567Z,70.93
2022-07-31T01:26:38.567Z,71.13
2022-07-31T01:27:49.632Z,71.33
2022-07-31T01:28:39.406Z,71.23
2022-07-31T01:29:39.128Z,70.93
2022-07-31T01:30:38.285Z,71.06
2022-07-31T01:31:38.698Z,71.06
2022-07-31T01:32:38.275Z,71.06
2022-07-31T01:33:38.617Z,71.17
2022-07-31T01:34:38.259Z,71.47
2022-07-31T01:35:38.228Z,71.77
2022-07-31T01:36:38.998Z,71.77
2022-07-31T01:37:38.189Z,71.97
2022-07-31T01:38:43.765Z,72.31
2022-07-31T01:39:39.968Z,72.41
2022-07-31T01:40:38.196Z,72.51
2022-07-31T01:41:39.026Z,72.41
2022-07-31T01:42:38.907Z,72.81
2022-07-31T01:43:39.070Z,72.71
2022-07-31T01:44:38.136Z,73.05
2022-07-31T01:45:38.879Z,73.15
2022-07-31T01:46:41.695Z,73.35
2022-07-31T01:47:38.079Z,73.35
2022-07-31T01:48:38.839Z,73.15
2022-07-31T01:49:38.310Z,73.75
2022-07-31T01:50:43.235Z,73.75
2022-07-31T01:51:39.839Z,73.75
2022-07-31T01:52:38.329Z,73.90
2022-07-31T01:53:38.049Z,73.90
2022-07-31T01:54:38.292Z,73.90
2022-07-31T01:56:02.585Z,74.40
2022-07-31T01:56:39.020Z,74.70
2022-07-31T01:57:37.988Z,74.10
2022-07-31T01:58:37.994Z,74.19
2022-07-31T01:59:38.827Z,74.50
2022-07-31T02:00:38.147Z,74.70
2022-07-31T02:01:38.717Z,74.60
2022-07-31T02:02:38.780Z,75.24
2022-07-31T02:03:44.163Z,75.04
2022-07-31T02:04:39.869Z,74.84
2022-07-31T02:05:38.740Z,74.74
2022-07-31T02:06:38.320Z,74.84
2022-07-31T02:07:37.941Z,74.94
2022-07-31T02:08:38.711Z,75.24
2022-07-31T02:09:37.855Z,75.45
2022-07-31T02:10:39.260Z,75.24
2022-07-31T02:11:53.442Z,75.04
2022-07-31T02:12:39.279Z,75.18
2022-07-31T02:13:37.791Z,75.48
2022-07-31T02:14:37.811Z,75.79
2022-07-31T02:15:37.772Z,76.19
2022-07-31T02:16:37.870Z,76.09
2022-07-31T02:17:37.749Z,76.19
2022-07-31T02:18:37.990Z,76.29
2022-07-31T02:19:37.731Z,76.29
2022-07-31T02:20:37.731Z,75.79
2022-07-31T02:21:38.490Z,75.68
2022-07-31T02:22:37.737Z,75.58
2022-07-31T02:23:38.653Z,75.58
2022-07-31T02:24:38.460Z,75.89
2022-07-31T02:25:38.098Z,76.29
2022-07-31T02:26:37.732Z,76.19
2022-07-31T02:27:55.424Z,76.03
2022-07-31T02:28:38.663Z,76.23
2022-07-31T02:29:37.750Z,76.23
2022-07-31T02:30:38.802Z,76.23
2022-07-31T02:31:37.610Z,76.32
2022-07-31T02:32:37.611Z,75.92
2022-07-31T02:33:38.365Z,76.23
2022-07-31T02:34:38.307Z,75.82
2022-07-31T02:35:37.695Z,76.03
2022-07-31T02:36:38.569Z,75.92
2022-07-31T02:37:37.555Z,76.03
2022-07-31T02:38:38.391Z,75.92
2022-07-31T02:39:38.302Z,75.82
2022-07-31T02:40:37.534Z,75.11
2022-07-31T02:41:38.366Z,75.21
2022-07-31T02:42:38.269Z,75.82
2022-07-31T02:43:38.422Z,75.92
2022-07-31T02:44:37.608Z,76.12
2022-07-31T02:45:38.265Z,76.09
2022-07-31T02:46:37.455Z,76.29
2022-07-31T02:47:37.664Z,76.19
2022-07-31T02:48:37.440Z,75.99
2022-07-31T02:49:38.377Z,76.23
2022-07-31T02:50:37.902Z,76.32
2022-07-31T02:51:42.506Z,76.32
2022-07-31T02:52:38.385Z,76.63
2022-07-31T02:53:37.351Z,76.63
2022-07-31T02:54:37.381Z,76.73
2022-07-31T02:55:37.544Z,76.63
2022-07-31T02:56:37.583Z,76.73
2022-07-31T02:57:37.312Z,76.53
2022-07-31T02:58:37.682Z,76.23
2022-07-31T02:59:37.722Z,76.32
2022-07-31T03:00:37.808Z,76.43
2022-07-31T03:01:37.813Z,76.53
2022-07-31T03:02:38.061Z,76.73
2022-07-31T03:03:37.302Z,76.83
2022-07-31T03:04:37.443Z,76.73
2022-07-31T03:05:38.130Z,76.97
2022-07-31T03:06:37.223Z,76.97
2022-07-31T03:07:37.203Z,77.07
2022-07-31T03:08:37.212Z,76.97
2022-07-31T03:09:37.173Z,76.87
2022-07-31T03:10:37.193Z,76.67
2022-07-31T03:11:37.193Z,76.67
2022-07-31T03:12:37.161Z,77.17
2022-07-31T03:13:37.132Z,77.58
2022-07-31T03:14:37.137Z,77.78
2022-07-31T03:15:37.106Z,77.88
2022-07-31T03:16:37.118Z,77.88
2022-07-31T03:17:40.733Z,78.08
2022-07-31T03:18:37.103Z,78.12
2022-07-31T03:19:37.073Z,78.02
2022-07-31T03:20:37.065Z,78.02
2022-07-31T03:21:37.046Z,77.92
2022-07-31T03:22:37.042Z,77.72
2022-07-31T03:23:37.185Z,77.72
2022-07-31T03:24:37.830Z,77.72
2022-07-31T03:25:37.203Z,77.92
2022-07-31T03:26:37.004Z,78.22
2022-07-31T03:27:37.797Z,78.12
2022-07-31T03:28:36.994Z,78.12
2022-07-31T03:29:43.392Z,78.26
2022-07-31T03:30:38.783Z,78.56
2022-07-31T03:31:36.935Z,78.56
2022-07-31T03:32:37.203Z,78.77
2022-07-31T03:33:37.725Z,78.77
2022-07-31T03:34:36.893Z,78.87
2022-07-31T03:35:42.283Z,78.87
2022-07-31T03:36:37.875Z,78.87
2022-07-31T03:37:36.873Z,78.97
2022-07-31T03:38:42.301Z,78.97
2022-07-31T03:39:37.855Z,78.87
2022-07-31T03:40:36.833Z,79.17
2022-07-31T03:41:37.208Z,79.17
2022-07-31T03:42:37.203Z,79.17
2022-07-31T03:43:44.246Z,78.97
2022-07-31T03:44:38.713Z,78.87
2022-07-31T03:45:36.793Z,78.66
2022-07-31T03:46:36.833Z,78.87
2022-07-31T03:47:36.770Z,78.73
2022-07-31T03:48:36.915Z,78.53
2022-07-31T03:49:37.022Z,78.63
2022-07-31T03:50:37.005Z,78.33
2022-07-31T03:51:36.721Z,78.22
2022-07-31T03:52:36.694Z,78.22
2022-07-31T03:53:36.704Z,78.33
2022-07-31T03:54:36.665Z,78.33
2022-07-31T03:55:36.676Z,78.42
2022-07-31T03:56:36.665Z,78.53
2022-07-31T03:57:36.657Z,78.42
2022-07-31T03:58:36.762Z,78.33
2022-07-31T03:59:40.555Z,78.33
2022-07-31T04:00:37.766Z,78.42
2022-07-31T04:01:58.187Z,78.22
2022-07-31T04:02:37.667Z,78.33
2022-07-31T04:03:36.586Z,78.22
2022-07-31T04:04:37.305Z,78.02
2022-07-31T04:05:36.638Z,77.98
2022-07-31T04:06:37.367Z,77.98
2022-07-31T04:07:36.789Z,77.88
2022-07-31T04:08:36.515Z,77.78
2022-07-31T04:09:36.529Z,77.78
2022-07-31T04:10:36.494Z,77.68
2022-07-31T04:11:36.494Z,77.68
2022-07-31T04:12:36.555Z,77.88
2022-07-31T04:13:36.465Z,77.78
2022-07-31T04:14:36.445Z,77.17
2022-07-31T04:15:36.457Z,77.07
2022-07-31T04:16:36.437Z,76.97
2022-07-31T04:17:36.436Z,77.28
2022-07-31T04:18:36.406Z,77.07
2022-07-31T04:19:36.414Z,77.07
2022-07-31T04:20:36.384Z,77.17
2022-07-31T04:21:36.383Z,76.73
2022-07-31T04:22:36.356Z,76.53
2022-07-31T04:23:36.363Z,76.63
2022-07-31T04:24:36.526Z,76.73
2022-07-31T04:25:36.336Z,76.63
2022-07-31T04:26:36.316Z,76.63
2022-07-31T04:27:36.344Z,76.63
2022-07-31T04:28:37.286Z,76.53
2022-07-31T04:29:36.296Z,76.53
2022-07-31T04:30:36.266Z,76.43
2022-07-31T04:31:36.266Z,76.32
2022-07-31T04:32:36.246Z,76.39
2022-07-31T04:33:36.276Z,75.99
2022-07-31T04:34:37.235Z,75.99
2022-07-31T04:35:36.227Z,75.48
2022-07-31T04:36:36.195Z,75.68
2022-07-31T04:37:36.200Z,75.68
2022-07-31T04:38:36.190Z,75.79
2022-07-31T04:39:36.187Z,75.58
2022-07-31T04:40:36.156Z,75.45
2022-07-31T04:41:36.155Z,74.63
2022-07-31T04:42:36.136Z,74.94
2022-07-31T04:43:36.135Z,75.04
2022-07-31T04:44:36.117Z,74.74
2022-07-31T04:45:36.959Z,74.74
2022-07-31T04:46:36.090Z,74.33
2022-07-31T04:47:36.096Z,73.52
2022-07-31T04:48:36.076Z,73.63
2022-07-31T04:49:37.153Z,74.10
2022-07-31T04:50:36.047Z,74.03
2022-07-31T04:51:36.226Z,74.19
2022-07-31T04:52:36.029Z,74.30
2022-07-31T04:53:36.037Z,74.19
2022-07-31T04:54:35.998Z,74.19
2022-07-31T04:55:36.007Z,73.39
2022-07-31T04:56:35.996Z,73.59
2022-07-31T04:57:35.991Z,73.35
2022-07-31T04:58:35.956Z,73.46
2022-07-31T04:59:58.120Z,73.46
2022-07-31T05:00:36.968Z,73.15
2022-07-31T05:01:36.062Z,72.95
2022-07-31T05:02:35.922Z,72.85
2022-07-31T05:03:35.917Z,72.75
2022-07-31T05:04:35.888Z,72.75
2022-07-31T05:05:35.888Z,72.71
2022-07-31T05:06:36.419Z,72.61
2022-07-31T05:07:36.471Z,72.51
2022-07-31T05:08:35.850Z,72.51
2022-07-31T05:09:36.514Z,72.41
2022-07-31T05:10:35.827Z,72.41
2022-07-31T05:11:35.829Z,72.31
2022-07-31T05:12:35.808Z,72.00
2022-07-31T05:13:35.808Z,72.00
2022-07-31T05:14:35.779Z,71.91
2022-07-31T05:15:35.791Z,71.77
2022-07-31T05:16:35.761Z,71.87
2022-07-31T05:17:35.777Z,71.87
2022-07-31T05:18:35.748Z,71.57
2022-07-31T05:19:35.748Z,71.57
2022-07-31T05:20:35.728Z,71.57
2022-07-31T05:21:35.728Z,71.17
2022-07-31T05:22:36.707Z,70.76
2022-07-31T05:23:35.703Z,71.26
2022-07-31T05:24:35.689Z,71.37
2022-07-31T05:25:35.691Z,71.06
2022-07-31T05:26:35.733Z,71.23
2022-07-31T05:27:38.942Z,71.33
2022-07-31T05:28:36.639Z,71.03
2022-07-31T05:29:35.640Z,70.83
2022-07-31T05:30:35.611Z,70.12
2022-07-31T05:31:35.658Z,69.31
2022-07-31T05:32:35.589Z,69.31
2022-07-31T05:33:35.588Z,69.82
2022-07-31T05:34:35.566Z,70.22
2022-07-31T05:35:35.569Z,70.62
2022-07-31T05:36:35.548Z,69.62
2022-07-31T05:37:35.548Z,69.82
2022-07-31T05:38:35.521Z,69.72
2022-07-31T05:39:35.535Z,70.09
2022-07-31T05:40:35.514Z,70.19
2022-07-31T05:41:35.504Z,70.09
2022-07-31T05:42:35.499Z,70.09
2022-07-31T05:43:35.488Z,70.29
2022-07-31T05:44:35.458Z,70.19
2022-07-31T05:45:35.471Z,70.19
2022-07-31T05:46:36.180Z,69.99
2022-07-31T05:47:40.815Z,69.79
2022-07-31T05:48:36.421Z,69.79
2022-07-31T05:49:35.483Z,69.89
2022-07-31T05:50:35.399Z,69.85
2022-07-31T05:51:35.398Z,69.85
2022-07-31T05:52:35.359Z,68.44
2022-07-31T05:53:35.372Z,68.85
2022-07-31T05:54:35.350Z,69.45
2022-07-31T05:55:35.351Z,69.85
2022-07-31T05:56:35.339Z,69.85
2022-07-31T05:57:35.321Z,69.25
2022-07-31T05:58:35.300Z,69.05
2022-07-31T05:59:35.308Z,69.15
2022-07-31T06:00:35.292Z,69.12
2022-07-31T06:01:35.360Z,68.21
2022-07-31T06:02:35.264Z,67.40
2022-07-31T06:03:51.441Z,67.40
2022-07-31T06:04:36.243Z,68.31
2022-07-31T06:05:35.249Z,68.41
2022-07-31T06:06:35.250Z,68.31
2022-07-31T06:07:35.997Z,68.01
2022-07-31T06:08:35.210Z,68.28
2022-07-31T06:09:35.199Z,67.37
2022-07-31T06:10:35.162Z,66.56
2022-07-31T06:11:35.173Z,66.36
2022-07-31T06:12:35.172Z,66.56
2022-07-31T06:13:35.154Z,67.64
2022-07-31T06:14:35.121Z,67.94
2022-07-31T06:15:36.770Z,68.44
2022-07-31T06:16:35.110Z,68.24
2022-07-31T06:17:44.157Z,67.74
2022-07-31T06:18:36.080Z,68.11
2022-07-31T06:19:35.092Z,67.91
2022-07-31T06:20:35.051Z,67.81
2022-07-31T06:21:35.067Z,67.41
2022-07-31T06:22:35.061Z,67.11
2022-07-31T06:23:35.068Z,67.11
2022-07-31T06:24:35.254Z,66.50
2022-07-31T06:25:38.965Z,66.77
2022-07-31T06:26:34.984Z,66.47
2022-07-31T06:27:35.313Z,66.47
2022-07-31T06:28:48.046Z,66.67
2022-07-31T06:29:40.791Z,66.47
2022-07-31T06:30:35.954Z,65.77
2022-07-31T06:31:34.944Z,65.67
2022-07-31T06:32:34.922Z,65.77
2022-07-31T06:33:37.769Z,65.87
2022-07-31T06:34:34.903Z,65.77
2022-07-31T06:35:34.912Z,65.77
2022-07-31T06:36:34.904Z,65.97
2022-07-31T06:37:34.878Z,65.84
2022-07-31T06:38:34.853Z,65.64
2022-07-31T06:39:55.183Z,65.44
2022-07-31T06:40:35.840Z,65.73
2022-07-31T06:41:35.154Z,65.84
2022-07-31T06:42:34.804Z,66.14
2022-07-31T06:43:34.815Z,66.00
2022-07-31T06:44:34.784Z,66.00
2022-07-31T06:45:50.880Z,65.30
2022-07-31T06:46:36.607Z,64.60
2022-07-31T06:47:34.955Z,64.57
2022-07-31T06:48:35.643Z,64.37
2022-07-31T06:49:34.887Z,64.27
2022-07-31T06:50:34.714Z,64.14
2022-07-31T06:51:35.123Z,63.43
2022-07-31T06:52:34.694Z,63.33
2022-07-31T06:53:34.699Z,63.33
2022-07-31T06:54:34.675Z,63.10
2022-07-31T06:55:34.685Z,62.80
2022-07-31T06:56:35.247Z,62.50
2022-07-31T06:57:35.558Z,61.97
2022-07-31T06:58:35.254Z,61.77
2022-07-31T06:59:40.099Z,61.47
2022-07-31T07:00:35.617Z,61.07
2022-07-31T07:01:34.664Z,60.64
2022-07-31T07:02:34.616Z,59.83
2022-07-31T07:03:34.597Z,59.13
2022-07-31T07:05:05.209Z,56.60
2022-07-31T07:05:35.576Z,57.50
2022-07-31T07:06:34.546Z,59.48
2022-07-31T07:07:34.545Z,54.67
2022-07-31T07:08:35.261Z,54.64
2022-07-31T07:09:35.425Z,57.55
2022-07-31T07:10:34.538Z,54.62
2022-07-31T07:11:34.509Z,56.20
2022-07-31T07:12:34.798Z,55.19
2022-07-31T07:13:45.817Z,54.69
2022-07-31T07:14:35.455Z,53.97
2022-07-31T07:15:34.457Z,52.47
2022-07-31T07:16:35.256Z,51.45
2022-07-31T07:17:34.440Z,50.45
2022-07-31T07:18:35.325Z,50.92
2022-07-31T07:19:34.428Z,53.12
2022-07-31T07:20:34.420Z,53.12
2022-07-31T07:21:34.395Z,53.31
2022-07-31T07:22:34.376Z,51.52
2022-07-31T07:23:34.375Z,53.22
2022-07-31T07:24:34.359Z,52.89
2022-07-31T07:25:34.355Z,53.19
2022-07-31T07:26:34.317Z,53.49
2022-07-31T07:27:34.327Z,52.99
2022-07-31T07:28:34.310Z,52.89
2022-07-31T07:29:35.040Z,52.59
2022-07-31T07:30:34.297Z,52.79
2022-07-31T07:31:34.291Z,51.77
2022-07-31T07:32:34.268Z,52.37
2022-07-31T07:33:41.710Z,52.27
2022-07-31T07:34:35.247Z,51.75
2022-07-31T07:35:34.986Z,51.15
2022-07-31T07:36:34.227Z,51.75
2022-07-31T07:37:38.928Z,50.62
2022-07-31T07:38:34.950Z,51.12
2022-07-31T07:39:34.197Z,50.82
2022-07-31T07:40:35.009Z,50.30
2022-07-31T07:41:34.910Z,49.80
2022-07-31T07:42:35.067Z,49.10
2022-07-31T07:43:34.149Z,49.90
2022-07-31T07:44:34.128Z,49.58
2022-07-31T07:45:35.039Z,49.28
2022-07-31T07:46:34.968Z,49.38
2022-07-31T07:48:05.735Z,48.88
2022-07-31T07:48:35.088Z,48.66
2022-07-31T07:49:34.754Z,49.26
2022-07-31T07:50:34.819Z,48.66
2022-07-31T07:51:34.823Z,48.36
2022-07-31T07:52:34.878Z,48.64
2022-07-31T07:53:34.121Z,48.04
2022-07-31T07:54:34.078Z,48.34
2022-07-31T07:55:36.046Z,48.14
2022-07-31T07:56:34.036Z,48.04
2022-07-31T07:57:34.908Z,47.64
2022-07-31T07:58:34.020Z,47.72
2022-07-31T07:59:34.719Z,47.92
2022-07-31T08:00:33.978Z,47.92
2022-07-31T08:01:34.016Z,48.02
2022-07-31T08:02:34.681Z,47.82
2022-07-31T08:03:48.927Z,48.32
2022-07-31T08:04:35.778Z,48.52
2022-07-31T08:05:34.663Z,48.22
2022-07-31T08:06:34.810Z,48.02
2022-07-31T08:07:42.193Z,47.52
2022-07-31T08:08:35.647Z,47.52
2022-07-31T08:09:34.788Z,47.72
2022-07-31T08:10:34.691Z,47.22
2022-07-31T08:11:34.240Z,47.52
2022-07-31T08:12:33.847Z,47.82
2022-07-31T08:13:33.842Z,47.62
2022-07-31T08:14:34.556Z,47.92
2022-07-31T08:15:34.740Z,48.11
2022-07-31T08:16:33.958Z,48.91
2022-07-31T08:17:33.789Z,47.92
2022-07-31T08:18:33.784Z,48.10
2022-07-31T08:19:34.590Z,48.39
2022-07-31T08:20:33.778Z,48.29
2022-07-31T08:21:34.653Z,48.32
2022-07-31T08:22:33.740Z,47.62
2022-07-31T08:23:33.791Z,47.62
2022-07-31T08:24:33.807Z,47.62
2022-07-31T08:25:34.524Z,47.50
2022-07-31T08:26:33.813Z,47.32
2022-07-31T08:27:39.534Z,48.46
2022-07-31T08:28:34.671Z,49.66
2022-07-31T08:29:33.652Z,49.16
2022-07-31T08:30:34.554Z,49.46
2022-07-31T08:31:34.462Z,48.86
2022-07-31T08:32:34.365Z,48.64
2022-07-31T08:33:34.522Z,48.34
2022-07-31T08:34:33.593Z,48.14
2022-07-31T08:35:33.863Z,48.04
2022-07-31T08:36:34.491Z,47.94
2022-07-31T08:37:52.116Z,47.82
2022-07-31T08:38:34.562Z,47.62
2022-07-31T08:39:33.535Z,47.42
2022-07-31T08:40:33.573Z,47.82
2022-07-31T08:41:33.541Z,48.10
2022-07-31T08:42:34.428Z,48.10
2022-07-31T08:44:01.800Z,48.19
2022-07-31T08:44:34.544Z,48.11
2022-07-31T08:45:36.376Z,48.22
2022-07-31T08:46:35.325Z,48.32
2022-07-31T08:47:33.444Z,48.71
2022-07-31T08:48:34.384Z,49.01
2022-07-31T08:49:34.318Z,49.01
2022-07-31T08:50:33.414Z,48.11
2022-07-31T08:51:33.404Z,48.22
2022-07-31T08:52:35.255Z,48.79
2022-07-31T08:53:33.375Z,48.69
2022-07-31T08:54:34.294Z,47.92
2022-07-31T08:55:56.372Z,49.11
2022-07-31T08:56:35.127Z,48.83
2022-07-31T08:57:33.328Z,49.01
2022-07-31T08:58:39.054Z,48.71
2022-07-31T08:59:34.303Z,48.94
2022-07-31T09:00:33.312Z,48.74
2022-07-31T09:01:33.339Z,48.41
2022-07-31T09:02:33.274Z,48.22
2022-07-31T09:03:34.212Z,48.34
2022-07-31T09:04:34.106Z,48.32
2022-07-31T09:05:41.997Z,48.52
2022-07-31T09:06:34.936Z,49.16
2022-07-31T09:07:34.079Z,50.50
2022-07-31T09:08:33.984Z,49.78
2022-07-31T09:09:45.333Z,49.98
2022-07-31T09:10:34.201Z,49.85
2022-07-31T09:11:33.947Z,50.15
2022-07-31T09:12:34.861Z,49.63
2022-07-31T09:13:33.158Z,49.23
2022-07-31T09:14:33.168Z,48.34
2022-07-31T09:15:33.151Z,48.64
2022-07-31T09:16:33.327Z,48.94
2022-07-31T09:17:33.326Z,48.44
2022-07-31T09:18:34.039Z,48.71
2022-07-31T09:19:52.151Z,48.79
2022-07-31T09:20:34.870Z,48.49
2022-07-31T09:21:34.019Z,48.47
2022-07-31T09:22:33.268Z,48.17
2022-07-31T09:23:33.030Z,47.45
2022-07-31T09:24:37.028Z,46.56
2022-07-31T09:25:34.913Z,46.73
2022-07-31T09:26:33.009Z,46.34
2022-07-31T09:27:32.997Z,46.91
2022-07-31T09:28:32.990Z,46.42
2022-07-31T09:29:33.759Z,46.42
2022-07-31T09:30:33.911Z,46.61
2022-07-31T09:31:33.819Z,46.49
2022-07-31T09:32:33.029Z,46.81
2022-07-31T09:33:33.031Z,47.21
2022-07-31T09:34:33.350Z,46.71
2022-07-31T09:35:32.941Z,46.81
2022-07-31T09:36:33.852Z,46.91
2022-07-31T09:37:33.161Z,46.02
2022-07-31T09:38:32.892Z,46.51
2022-07-31T09:39:32.869Z,46.39
2022-07-31T09:40:32.880Z,46.19
2022-07-31T09:42:01.112Z,46.19
2022-07-31T09:42:33.852Z,46.42
2022-07-31T09:43:32.840Z,46.61
2022-07-31T09:44:32.811Z,46.39
2022-07-31T09:45:32.781Z,45.79
2022-07-31T09:46:32.830Z,45.48
2022-07-31T09:47:32.788Z,45.28
2022-07-31T09:48:32.792Z,44.86
2022-07-31T09:49:32.838Z,44.37
2022-07-31T09:50:32.742Z,44.45
2022-07-31T09:51:32.728Z,44.45
2022-07-31T09:52:32.740Z,44.24
2022-07-31T09:53:33.501Z,44.35
2022-07-31T09:54:32.761Z,44.35
2022-07-31T09:55:32.695Z,44.35
2022-07-31T09:56:32.885Z,44.24
2022-07-31T09:57:32.662Z,43.65
2022-07-31T09:58:33.540Z,44.24
2022-07-31T09:59:33.002Z,44.07
2022-07-31T10:00:32.701Z,44.86
2022-07-31T10:01:32.663Z,44.46
2022-07-31T10:02:32.622Z,43.75
2022-07-31T10:03:32.618Z,44.67
2022-07-31T10:04:33.472Z,44.37
2022-07-31T10:05:32.590Z,44.96
2022-07-31T10:06:32.573Z,44.37
2022-07-31T10:07:33.073Z,44.68
2022-07-31T10:08:33.063Z,45.60
2022-07-31T10:09:33.074Z,46.19
2022-07-31T10:10:32.532Z,46.17
2022-07-31T10:11:33.081Z,45.06
2022-07-31T10:12:32.573Z,44.60
2022-07-31T10:13:32.512Z,44.89
2022-07-31T10:14:33.067Z,44.86
2022-07-31T10:15:32.596Z,44.45
2022-07-31T10:16:33.123Z,43.80
2022-07-31T10:17:35.945Z,43.59
2022-07-31T10:18:35.600Z,43.17
2022-07-31T10:19:32.428Z,41.97
2022-07-31T10:20:32.435Z,42.46
2022-07-31T10:21:32.418Z,42.19
2022-07-31T10:22:32.413Z,43.39
2022-07-31T10:23:32.645Z,42.50
2022-07-31T10:24:32.391Z,42.50
2022-07-31T10:25:33.246Z,42.30
2022-07-31T10:26:57.886Z,42.50
2022-07-31T10:27:33.338Z,41.52
2022-07-31T10:28:33.346Z,41.61
2022-07-31T10:29:33.170Z,43.39
2022-07-31T10:30:32.324Z,41.61
2022-07-31T10:31:33.176Z,42.60
2022-07-31T10:32:32.294Z,41.71
2022-07-31T10:33:47.740Z,42.60
2022-07-31T10:34:33.314Z,42.01
2022-07-31T10:35:32.247Z,43.59
2022-07-31T10:36:32.954Z,43.10
2022-07-31T10:37:32.238Z,42.82
2022-07-31T10:38:35.435Z,44.10
2022-07-31T10:39:33.217Z,43.61
2022-07-31T10:40:32.872Z,43.10
2022-07-31T10:41:32.988Z,43.69
2022-07-31T10:42:32.889Z,42.72
2022-07-31T10:43:32.275Z,43.91
2022-07-31T10:44:38.109Z,42.62
2022-07-31T10:45:33.887Z,43.49
2022-07-31T10:46:32.151Z,43.29
2022-07-31T10:47:32.508Z,42.40
2022-07-31T10:48:32.208Z,42.64
2022-07-31T10:49:32.128Z,44.67
2022-07-31T10:50:32.098Z,44.07
2022-07-31T10:51:32.125Z,44.07
2022-07-31T10:52:32.081Z,43.65
2022-07-31T10:53:41.440Z,44.05
2022-07-31T10:54:33.780Z,44.13
2022-07-31T10:55:32.921Z,43.80
2022-07-31T10:56:32.021Z,43.24
2022-07-31T10:57:32.010Z,43.73
2022-07-31T10:58:32.279Z,43.24
2022-07-31T10:59:31.990Z,43.85
2022-07-31T11:00:31.981Z,44.15
2022-07-31T11:01:32.003Z,44.13
2022-07-31T11:02:31.969Z,43.83
2022-07-31T11:03:31.940Z,43.31
2022-07-31T11:04:31.953Z,43.33
2022-07-31T11:05:31.910Z,43.08
2022-07-31T11:06:32.911Z,44.39
2022-07-31T11:07:31.890Z,45.70
2022-07-31T11:08:31.891Z,45.78
2022-07-31T11:09:31.882Z,44.19
2022-07-31T11:10:31.881Z,44.81
2022-07-31T11:11:31.852Z,45.48
2022-07-31T11:12:31.862Z,44.37
2022-07-31T11:13:33.539Z,44.46
2022-07-31T11:14:32.842Z,44.74
2022-07-31T11:15:31.972Z,43.43
2022-07-31T11:16:31.814Z,44.02
2022-07-31T11:18:20.870Z,43.21
2022-07-31T11:18:34.616Z,43.39
2022-07-31T11:19:31.774Z,43.29
2022-07-31T11:20:32.778Z,42.48
2022-07-31T11:21:38.640Z,42.16
2022-07-31T11:22:33.173Z,41.47
2022-07-31T11:23:31.716Z,41.65
2022-07-31T11:24:31.722Z,40.47
2022-07-31T11:25:31.693Z,41.25
2022-07-31T11:26:33.404Z,40.84
2022-07-31T11:27:32.681Z,41.14
2022-07-31T11:28:31.681Z,41.12
2022-07-31T11:30:00.626Z,40.23
2022-07-31T11:30:32.657Z,41.04
2022-07-31T11:31:31.638Z,41.02
2022-07-31T11:32:31.654Z,40.53
2022-07-31T11:33:31.679Z,40.43
2022-07-31T11:34:32.615Z,40.92
2022-07-31T11:35:31.585Z,40.51
2022-07-31T11:36:31.596Z,40.62
2022-07-31T11:37:45.341Z,40.51
2022-07-31T11:38:32.566Z,40.11
2022-07-31T11:39:36.468Z,41.02
2022-07-31T11:40:32.545Z,40.66
2022-07-31T11:41:41.079Z,41.28
2022-07-31T11:42:36.113Z,42.26
2022-07-31T11:43:31.507Z,41.36
2022-07-31T11:44:31.507Z,42.14
2022-07-31T11:45:33.504Z,40.74
2022-07-31T11:46:31.477Z,40.76
2022-07-31T11:48:11.996Z,41.06
2022-07-31T11:48:38.116Z,41.46
2022-07-31T11:49:39.206Z,41.14
2022-07-31T11:50:32.440Z,41.85
2022-07-31T11:51:31.415Z,41.95
2022-07-31T11:52:36.816Z,40.56
2022-07-31T11:53:32.646Z,41.75
2022-07-31T11:54:31.716Z,40.66
2022-07-31T11:55:31.405Z,41.24
2022-07-31T11:56:31.375Z,41.73
2022-07-31T11:57:51.587Z,40.33
2022-07-31T11:58:32.347Z,40.92
2022-07-31T11:59:45.188Z,41.00
2022-07-31T12:00:32.339Z,40.61
2022-07-31T12:01:31.312Z,40.03
2022-07-31T12:02:31.432Z,40.45
2022-07-31T12:03:31.289Z,42.34
2022-07-31T12:04:31.298Z,41.73
2022-07-31T12:05:38.651Z,41.02
2022-07-31T12:06:36.393Z,40.90
2022-07-31T12:07:31.261Z,40.11
2022-07-31T12:08:31.229Z,40.13
2022-07-31T12:10:01.423Z,41.63
2022-07-31T12:10:32.211Z,40.72
2022-07-31T12:11:31.209Z,41.02
2022-07-31T12:12:31.189Z,40.51
2022-07-31T12:13:31.193Z,40.29
2022-07-31T12:14:31.171Z,39.79
2022-07-31T12:15:31.899Z,40.56
2022-07-31T12:16:31.150Z,39.18
2022-07-31T12:17:31.150Z,39.09
2022-07-31T12:18:31.128Z,39.97
2022-07-31T12:19:31.132Z,40.37
2022-07-31T12:20:36.628Z,40.17
2022-07-31T12:21:32.261Z,39.66
2022-07-31T12:22:31.072Z,38.44
2022-07-31T12:23:40.506Z,38.44
2022-07-31T12:24:32.062Z,38.62
2022-07-31T12:25:31.091Z,37.63
2022-07-31T12:26:31.040Z,38.49
2022-07-31T12:27:31.041Z,39.68
2022-07-31T12:28:31.011Z,38.64
2022-07-31T12:29:31.020Z,41.63
2022-07-31T12:30:30.993Z,40.94
2022-07-31T12:31:31.003Z,41.95
2022-07-31T12:32:31.806Z,41.53
2022-07-31T12:33:30.982Z,42.00
2022-07-31T12:34:30.963Z,40.55
2022-07-31T12:35:56.184Z,41.93
2022-07-31T12:36:31.932Z,41.78
2022-07-31T12:37:30.940Z,39.12
2022-07-31T12:38:44.154Z,40.61
2022-07-31T12:39:54.269Z,39.81
2022-07-31T12:40:31.883Z,41.20
2022-07-31T12:41:31.702Z,39.70
2022-07-31T12:42:34.002Z,39.70
2022-07-31T12:43:31.913Z,39.50
2022-07-31T12:44:30.844Z,40.00
2022-07-31T12:45:30.853Z,39.78
2022-07-31T12:46:30.834Z,39.68
2022-07-31T12:47:30.824Z,39.97
2022-07-31T12:48:33.777Z,39.09
2022-07-31T12:49:31.855Z,40.88
2022-07-31T12:50:30.774Z,39.89
2022-07-31T12:51:45.061Z,40.58
2022-07-31T12:52:31.756Z,40.27